sensor_id;sensor_type;location;lat;lon;timestamp;pressure;altitude;pressure_sealevel;temperature;humidity
62458;BME280;48509;52.122;5.250;2023-03-23T00:01:12;100113.0;;;13.61;100.0
62458;BME280;48509;52.122;5.250;2023-03-23T00:04:25;100113.0;;;13.59;100.0
62458;BME280;48509;52.122;5.250;2023-03-23T00:06:01;100112.0;;;13.42;100.0
62458;BME280;48509;52.122;5.250;2023-03-23T00:07:38;100107.0;;;13.48;100.0
62458;BME280;48509;52.122;5.250;2023-03-23T00:10:51;100120.0;;;13.59;100.0
62458;BME280;48509;52.122;5.250;2023-03-23T00:12:29;100119.0;;;13.58;100.0
62458;BME280;48509;52.122;5.250;2023-03-23T00:14:07;100116.0;;;13.66;100.0
62458;BME280;48509;52.122;5.250;2023-03-23T00:15:45;100118.0;;;13.55;100.0
62458;BME280;48509;52.122;5.250;2023-03-23T00:19:00;100120.0;;;13.46;100.0
62458;BME280;48509;52.122;5.250;2023-03-23T00:20:38;100117.0;;;13.49;100.0
62458;BME280;48509;52.122;5.250;2023-03-23T00:22:15;100117.0;;;13.36;100.0
62458;BME280;48509;52.122;5.250;2023-03-23T00:25:29;100107.0;;;13.5;100.0
62458;BME280;48509;52.122;5.250;2023-03-23T00:27:05;100109.0;;;13.51;100.0
62458;BME280;48509;52.122;5.250;2023-03-23T00:28:41;100105.0;;;13.56;100.0
62458;BME280;48509;52.122;5.250;2023-03-23T00:30:18;100107.0;;;13.45;100.0
62458;BME280;48509;52.122;5.250;2023-03-23T00:33:31;100100.0;;;13.56;100.0
62458;BME280;48509;52.122;5.250;2023-03-23T00:35:09;100103.0;;;13.49;100.0
62458;BME280;48509;52.122;5.250;2023-03-23T00:36:46;100102.0;;;13.47;100.0
62458;BME280;48509;52.122;5.250;2023-03-23T00:40:00;100093.0;;;13.64;100.0
62458;BME280;48509;52.122;5.250;2023-03-23T00:41:36;100086.0;;;13.58;100.0
62458;BME280;48509;52.122;5.250;2023-03-23T00:43:13;100086.0;;;13.57;100.0
62458;BME280;48509;52.122;5.250;2023-03-23T00:46:25;100089.0;;;13.65;100.0
62458;BME280;48509;52.122;5.250;2023-03-23T00:48:01;100082.0;;;13.63;100.0
62458;BME280;48509;52.122;5.250;2023-03-23T00:51:14;100080.0;;;13.7;100.0
62458;BME280;48509;52.122;5.250;2023-03-23T00:54:27;100075.0;;;13.79;100.0
62458;BME280;48509;52.122;5.250;2023-03-23T00:56:04;100066.0;;;13.74;100.0
62458;BME280;48509;52.122;5.250;2023-03-23T00:57:41;100074.0;;;13.68;100.0
62458;BME280;48509;52.122;5.250;2023-03-23T01:00:54;100070.0;;;13.59;100.0
62458;BME280;48509;52.122;5.250;2023-03-23T01:02:30;100069.0;;;13.58;100.0
62458;BME280;48509;52.122;5.250;2023-03-23T01:04:08;100067.0;;;13.66;100.0
62458;BME280;48509;52.122;5.250;2023-03-23T01:07:22;100060.0;;;13.64;99.94
62458;BME280;48509;52.122;5.250;2023-03-23T01:08:58;100060.0;;;13.75;100.0
62458;BME280;48509;52.122;5.250;2023-03-23T01:10:35;100060.0;;;13.74;100.0
62458;BME280;48509;52.122;5.250;2023-03-23T01:12:11;100055.0;;;13.77;100.0
62458;BME280;48509;52.122;5.250;2023-03-23T01:15:23;100056.0;;;13.87;99.89
62458;BME280;48509;52.122;5.250;2023-03-23T01:16:59;100060.0;;;13.75;99.25
62458;BME280;48509;52.122;5.250;2023-03-23T01:18:35;100070.0;;;13.86;99.0
62458;BME280;48509;52.122;5.250;2023-03-23T01:21:51;100069.0;;;13.86;99.06
62458;BME280;48509;52.122;5.250;2023-03-23T01:23:27;100065.0;;;13.79;99.28
62458;BME280;48509;52.122;5.250;2023-03-23T01:25:04;100048.0;;;13.91;98.23
62458;BME280;48509;52.122;5.250;2023-03-23T01:28:16;100031.0;;;13.92;98.79
62458;BME280;48509;52.122;5.250;2023-03-23T01:29:52;100043.0;;;13.73;100.0
62458;BME280;48509;52.122;5.250;2023-03-23T01:31:28;100037.0;;;13.74;100.0
62458;BME280;48509;52.122;5.250;2023-03-23T01:33:04;100047.0;;;13.8;99.16
62458;BME280;48509;52.122;5.250;2023-03-23T01:36:18;100039.0;;;13.78;99.46
62458;BME280;48509;52.122;5.250;2023-03-23T01:37:57;100027.0;;;13.7;100.0
62458;BME280;48509;52.122;5.250;2023-03-23T01:39:35;100031.0;;;13.7;100.0
62458;BME280;48509;52.122;5.250;2023-03-23T01:42:50;100027.0;;;13.63;100.0
62458;BME280;48509;52.122;5.250;2023-03-23T01:45:22;100019.0;;;13.65;99.61
62458;BME280;48509;52.122;5.250;2023-03-23T01:47:01;100023.0;;;13.66;99.48
62458;BME280;48509;52.122;5.250;2023-03-23T01:48:39;100032.0;;;13.67;99.16
62458;BME280;48509;52.122;5.250;2023-03-23T01:50:16;100031.0;;;13.68;99.37
62458;BME280;48509;52.122;5.250;2023-03-23T01:51:55;100030.0;;;13.61;99.8
62458;BME280;48509;52.122;5.250;2023-03-23T01:55:17;100032.0;;;13.68;100.0
62458;BME280;48509;52.122;5.250;2023-03-23T01:56:55;100033.0;;;13.78;99.35
62458;BME280;48509;52.122;5.250;2023-03-23T01:58:36;100031.0;;;13.74;100.0
62458;BME280;48509;52.122;5.250;2023-03-23T02:00:14;100020.0;;;13.75;99.43
62458;BME280;48509;52.122;5.250;2023-03-23T02:03:29;100023.0;;;13.73;98.81
62458;BME280;48509;52.122;5.250;2023-03-23T02:05:11;100018.0;;;13.7;99.37
62458;BME280;48509;52.122;5.250;2023-03-23T02:06:49;100016.0;;;13.71;98.75
62458;BME280;48509;52.122;5.250;2023-03-23T02:10:05;100017.0;;;13.76;98.84
62458;BME280;48509;52.122;5.250;2023-03-23T02:11:41;100005.0;;;13.84;98.12
62458;BME280;48509;52.122;5.250;2023-03-23T02:13:18;100001.0;;;13.84;98.26
62458;BME280;48509;52.122;5.250;2023-03-23T02:14:55;100018.0;;;13.76;97.9
62458;BME280;48509;52.122;5.250;2023-03-23T02:18:23;100007.0;;;13.76;99.29
62458;BME280;48509;52.122;5.250;2023-03-23T02:20:21;100005.0;;;13.84;98.23
62458;BME280;48509;52.122;5.250;2023-03-23T02:22:22;100012.0;;;13.92;98.12
62458;BME280;48509;52.122;5.250;2023-03-23T02:25:41;100017.0;;;13.97;97.77
62458;BME280;48509;52.122;5.250;2023-03-23T02:27:46;100023.0;;;13.77;98.38
62458;BME280;48509;52.122;5.250;2023-03-23T02:30:11;100015.0;;;13.87;97.44
62458;BME280;48509;52.122;5.250;2023-03-23T02:32:10;100012.0;;;13.9;97.81
62458;BME280;48509;52.122;5.250;2023-03-23T02:33:52;100014.0;;;13.93;97.65
62458;BME280;48509;52.122;5.250;2023-03-23T02:37:17;100014.0;;;13.9;98.35
62458;BME280;48509;52.122;5.250;2023-03-23T02:39:01;100015.0;;;13.94;97.46
62458;BME280;48509;52.122;5.250;2023-03-23T02:40:42;100007.0;;;13.85;97.82
62458;BME280;48509;52.122;5.250;2023-03-23T02:42:24;100014.0;;;13.91;97.9
62458;BME280;48509;52.122;5.250;2023-03-23T02:45:42;100020.0;;;13.82;97.42
62458;BME280;48509;52.122;5.250;2023-03-23T02:47:23;100009.0;;;13.94;96.72
62458;BME280;48509;52.122;5.250;2023-03-23T02:49:02;100010.0;;;14.01;97.44
62458;BME280;48509;52.122;5.250;2023-03-23T02:50:43;100015.0;;;13.91;96.36
62458;BME280;48509;52.122;5.250;2023-03-23T02:54:04;100019.0;;;13.9;97.06
62458;BME280;48509;52.122;5.250;2023-03-23T02:55:43;100016.0;;;13.87;96.76
62458;BME280;48509;52.122;5.250;2023-03-23T02:57:20;100012.0;;;13.92;96.57
62458;BME280;48509;52.122;5.250;2023-03-23T02:58:58;100007.0;;;13.89;97.01
62458;BME280;48509;52.122;5.250;2023-03-23T03:02:14;100005.0;;;13.85;96.68
62458;BME280;48509;52.122;5.250;2023-03-23T03:03:54;99999.0;;;13.94;96.43
62458;BME280;48509;52.122;5.250;2023-03-23T03:05:37;100005.0;;;13.89;95.81
62458;BME280;48509;52.122;5.250;2023-03-23T03:07:42;100002.0;;;13.96;96.17
62458;BME280;48509;52.122;5.250;2023-03-23T03:09:27;99995.0;;;13.89;96.32
62458;BME280;48509;52.122;5.250;2023-03-23T03:12:54;99996.0;;;13.91;95.71
62458;BME280;48509;52.122;5.250;2023-03-23T03:14:37;99996.0;;;13.97;95.39
62458;BME280;48509;52.122;5.250;2023-03-23T03:16:22;100006.0;;;13.97;95.49
62458;BME280;48509;52.122;5.250;2023-03-23T03:18:07;99993.0;;;13.99;94.77
62458;BME280;48509;52.122;5.250;2023-03-23T03:19:49;99994.0;;;14.03;95.13
62458;BME280;48509;52.122;5.250;2023-03-23T03:23:11;99992.0;;;13.99;93.49
62458;BME280;48509;52.122;5.250;2023-03-23T03:24:50;99990.0;;;14.06;94.82
62458;BME280;48509;52.122;5.250;2023-03-23T03:26:28;99987.0;;;13.94;94.58
62458;BME280;48509;52.122;5.250;2023-03-23T03:28:06;99989.0;;;13.95;94.28
62458;BME280;48509;52.122;5.250;2023-03-23T03:31:27;99987.0;;;13.9;94.48
62458;BME280;48509;52.122;5.250;2023-03-23T03:33:04;99993.0;;;13.92;94.4
62458;BME280;48509;52.122;5.250;2023-03-23T03:34:40;99982.0;;;13.97;94.64
62458;BME280;48509;52.122;5.250;2023-03-23T03:37:57;99982.0;;;14.15;94.12
62458;BME280;48509;52.122;5.250;2023-03-23T03:39:41;99988.0;;;14.05;93.98
62458;BME280;48509;52.122;5.250;2023-03-23T03:41:18;99976.0;;;14.15;93.55
62458;BME280;48509;52.122;5.250;2023-03-23T03:42:55;99957.0;;;14.05;94.35
62458;BME280;48509;52.122;5.250;2023-03-23T03:46:08;99966.0;;;14.03;93.86
62458;BME280;48509;52.122;5.250;2023-03-23T03:47:45;99970.0;;;14.0;93.09
62458;BME280;48509;52.122;5.250;2023-03-23T03:49:21;99976.0;;;14.1;93.64
62458;BME280;48509;52.122;5.250;2023-03-23T03:52:34;99980.0;;;14.05;93.33
62458;BME280;48509;52.122;5.250;2023-03-23T03:54:10;99980.0;;;14.04;93.64
62458;BME280;48509;52.122;5.250;2023-03-23T03:55:46;99977.0;;;14.16;93.89
62458;BME280;48509;52.122;5.250;2023-03-23T03:57:23;99990.0;;;14.24;93.19
62458;BME280;48509;52.122;5.250;2023-03-23T04:00:35;99986.0;;;14.19;92.77
62458;BME280;48509;52.122;5.250;2023-03-23T04:02:11;99977.0;;;14.2;92.89
62458;BME280;48509;52.122;5.250;2023-03-23T04:03:47;99975.0;;;14.19;92.86
62458;BME280;48509;52.122;5.250;2023-03-23T04:06:59;99981.0;;;14.24;93.43
62458;BME280;48509;52.122;5.250;2023-03-23T04:08:36;99981.0;;;14.07;92.39
62458;BME280;48509;52.122;5.250;2023-03-23T04:10:12;99992.0;;;14.15;92.27
62458;BME280;48509;52.122;5.250;2023-03-23T04:13:25;99999.0;;;14.09;92.55
62458;BME280;48509;52.122;5.250;2023-03-23T04:15:01;99988.0;;;14.2;92.22
62458;BME280;48509;52.122;5.250;2023-03-23T04:16:38;99982.0;;;14.22;91.45
62458;BME280;48509;52.122;5.250;2023-03-23T04:19:52;99976.0;;;14.11;92.1
62458;BME280;48509;52.122;5.250;2023-03-23T04:21:29;99987.0;;;14.23;91.47
62458;BME280;48509;52.122;5.250;2023-03-23T04:23:06;99992.0;;;14.24;90.59
62458;BME280;48509;52.122;5.250;2023-03-23T04:24:42;99985.0;;;14.13;91.41
62458;BME280;48509;52.122;5.250;2023-03-23T04:27:54;99980.0;;;14.18;91.16
62458;BME280;48509;52.122;5.250;2023-03-23T04:29:30;99985.0;;;14.07;91.15
62458;BME280;48509;52.122;5.250;2023-03-23T04:31:06;99992.0;;;14.11;91.16
62458;BME280;48509;52.122;5.250;2023-03-23T04:34:18;100000.0;;;14.06;91.73
62458;BME280;48509;52.122;5.250;2023-03-23T04:35:58;99993.0;;;14.04;92.18
62458;BME280;48509;52.122;5.250;2023-03-23T04:37:36;100012.0;;;14.01;91.07
62458;BME280;48509;52.122;5.250;2023-03-23T04:39:14;100002.0;;;14.01;91.03
62458;BME280;48509;52.122;5.250;2023-03-23T04:42:29;100019.0;;;14.04;90.31
62458;BME280;48509;52.122;5.250;2023-03-23T04:44:07;100015.0;;;14.14;90.54
62458;BME280;48509;52.122;5.250;2023-03-23T04:45:43;100009.0;;;14.05;90.6
62458;BME280;48509;52.122;5.250;2023-03-23T04:48:56;100024.0;;;14.08;91.09
62458;BME280;48509;52.122;5.250;2023-03-23T04:50:33;100019.0;;;14.11;90.34
62458;BME280;48509;52.122;5.250;2023-03-23T04:52:09;100018.0;;;14.05;90.45
62458;BME280;48509;52.122;5.250;2023-03-23T04:55:21;100020.0;;;14.05;90.19
62458;BME280;48509;52.122;5.250;2023-03-23T04:56:57;100022.0;;;14.0;90.25
62458;BME280;48509;52.122;5.250;2023-03-23T04:58:33;100021.0;;;14.0;90.26
62458;BME280;48509;52.122;5.250;2023-03-23T05:00:11;100022.0;;;14.03;90.18
62458;BME280;48509;52.122;5.250;2023-03-23T05:03:23;100038.0;;;14.16;91.03
62458;BME280;48509;52.122;5.250;2023-03-23T05:04:59;100036.0;;;14.18;91.43
62458;BME280;48509;52.122;5.250;2023-03-23T05:06:35;100035.0;;;13.89;92.08
62458;BME280;48509;52.122;5.250;2023-03-23T05:09:48;100038.0;;;13.84;93.22
62458;BME280;48509;52.122;5.250;2023-03-23T05:11:24;100040.0;;;13.89;93.81
62458;BME280;48509;52.122;5.250;2023-03-23T05:13:00;100039.0;;;13.8;95.77
62458;BME280;48509;52.122;5.250;2023-03-23T05:16:16;100040.0;;;13.7;96.63
62458;BME280;48509;52.122;5.250;2023-03-23T05:17:52;100053.0;;;13.63;98.5
62458;BME280;48509;52.122;5.250;2023-03-23T05:19:28;100044.0;;;13.43;100.0
62458;BME280;48509;52.122;5.250;2023-03-23T05:21:04;100043.0;;;13.45;100.0
62458;BME280;48509;52.122;5.250;2023-03-23T05:24:17;100038.0;;;13.34;100.0
62458;BME280;48509;52.122;5.250;2023-03-23T05:25:54;100048.0;;;13.26;100.0
62458;BME280;48509;52.122;5.250;2023-03-23T05:27:31;100053.0;;;13.19;100.0
62458;BME280;48509;52.122;5.250;2023-03-23T05:30:43;100059.0;;;13.22;100.0
62458;BME280;48509;52.122;5.250;2023-03-23T05:32:19;100055.0;;;13.29;100.0
62458;BME280;48509;52.122;5.250;2023-03-23T05:33:55;100073.0;;;13.32;100.0
62458;BME280;48509;52.122;5.250;2023-03-23T05:37:08;100058.0;;;13.14;100.0
62458;BME280;48509;52.122;5.250;2023-03-23T05:38:45;100066.0;;;13.2;100.0
62458;BME280;48509;52.122;5.250;2023-03-23T05:40:21;100077.0;;;13.07;100.0
62458;BME280;48509;52.122;5.250;2023-03-23T05:41:57;100057.0;;;12.88;100.0
62458;BME280;48509;52.122;5.250;2023-03-23T05:45:10;100069.0;;;12.83;100.0
62458;BME280;48509;52.122;5.250;2023-03-23T05:46:47;100066.0;;;12.75;100.0
62458;BME280;48509;52.122;5.250;2023-03-23T05:48:24;100065.0;;;12.66;100.0
62458;BME280;48509;52.122;5.250;2023-03-23T05:51:37;100063.0;;;12.69;100.0
62458;BME280;48509;52.122;5.250;2023-03-23T05:53:13;100069.0;;;12.76;100.0
62458;BME280;48509;52.122;5.250;2023-03-23T05:54:49;100071.0;;;12.75;100.0
62458;BME280;48509;52.122;5.250;2023-03-23T05:58:01;100083.0;;;12.78;100.0
62458;BME280;48509;52.122;5.250;2023-03-23T05:59:37;100100.0;;;12.84;100.0
62458;BME280;48509;52.122;5.250;2023-03-23T06:01:14;100094.0;;;12.71;100.0
62458;BME280;48509;52.122;5.250;2023-03-23T06:04:30;100096.0;;;12.52;100.0
62458;BME280;48509;52.122;5.250;2023-03-23T06:06:09;100091.0;;;12.57;100.0
62458;BME280;48509;52.122;5.250;2023-03-23T06:07:46;100095.0;;;12.63;100.0
62458;BME280;48509;52.122;5.250;2023-03-23T06:09:22;100089.0;;;12.63;100.0
62458;BME280;48509;52.122;5.250;2023-03-23T06:12:34;100103.0;;;12.48;100.0
62458;BME280;48509;52.122;5.250;2023-03-23T06:14:11;100090.0;;;12.3;100.0
62458;BME280;48509;52.122;5.250;2023-03-23T06:15:48;100096.0;;;12.27;100.0
62458;BME280;48509;52.122;5.250;2023-03-23T06:19:00;100098.0;;;12.14;100.0
62458;BME280;48509;52.122;5.250;2023-03-23T06:20:36;100097.0;;;12.29;100.0
62458;BME280;48509;52.122;5.250;2023-03-23T06:22:12;100106.0;;;12.27;100.0
62458;BME280;48509;52.122;5.250;2023-03-23T06:23:49;100107.0;;;12.31;100.0
62458;BME280;48509;52.122;5.250;2023-03-23T06:27:01;100112.0;;;12.36;100.0
62458;BME280;48509;52.122;5.250;2023-03-23T06:28:38;100114.0;;;12.39;100.0
62458;BME280;48509;52.122;5.250;2023-03-23T06:30:14;100116.0;;;12.37;100.0
62458;BME280;48509;52.122;5.250;2023-03-23T06:33:32;100120.0;;;12.4;100.0
62458;BME280;48509;52.122;5.250;2023-03-23T06:35:10;100117.0;;;12.39;100.0
62458;BME280;48509;52.122;5.250;2023-03-23T06:36:46;100138.0;;;12.48;100.0
62458;BME280;48509;52.122;5.250;2023-03-23T06:39:59;100143.0;;;12.44;100.0
62458;BME280;48509;52.122;5.250;2023-03-23T06:41:36;100146.0;;;12.52;100.0
62458;BME280;48509;52.122;5.250;2023-03-23T06:43:13;100142.0;;;12.47;100.0
62458;BME280;48509;52.122;5.250;2023-03-23T06:44:49;100144.0;;;12.43;100.0
62458;BME280;48509;52.122;5.250;2023-03-23T06:48:01;100146.0;;;12.45;100.0
62458;BME280;48509;52.122;5.250;2023-03-23T06:49:37;100145.0;;;12.38;100.0
62458;BME280;48509;52.122;5.250;2023-03-23T06:51:13;100155.0;;;12.42;100.0
62458;BME280;48509;52.122;5.250;2023-03-23T06:54:27;100144.0;;;12.35;100.0
62458;BME280;48509;52.122;5.250;2023-03-23T06:56:03;100144.0;;;12.32;100.0
62458;BME280;48509;52.122;5.250;2023-03-23T06:57:39;100146.0;;;12.44;100.0
62458;BME280;48509;52.122;5.250;2023-03-23T07:00:54;100141.0;;;12.45;100.0
62458;BME280;48509;52.122;5.250;2023-03-23T07:02:29;100144.0;;;12.38;100.0
62458;BME280;48509;52.122;5.250;2023-03-23T07:04:05;100146.0;;;12.35;100.0
62458;BME280;48509;52.122;5.250;2023-03-23T07:05:45;100149.0;;;12.33;100.0
62458;BME280;48509;52.122;5.250;2023-03-23T07:08:58;100150.0;;;12.49;100.0
62458;BME280;48509;52.122;5.250;2023-03-23T07:10:34;100146.0;;;12.51;100.0
62458;BME280;48509;52.122;5.250;2023-03-23T07:12:10;100151.0;;;12.51;100.0
62458;BME280;48509;52.122;5.250;2023-03-23T07:15:23;100145.0;;;12.52;100.0
62458;BME280;48509;52.122;5.250;2023-03-23T07:16:58;100149.0;;;12.41;100.0
62458;BME280;48509;52.122;5.250;2023-03-23T07:18:35;100141.0;;;12.6;100.0
62458;BME280;48509;52.122;5.250;2023-03-23T07:21:48;100149.0;;;12.53;100.0
62458;BME280;48509;52.122;5.250;2023-03-23T07:23:24;100158.0;;;12.5;100.0
62458;BME280;48509;52.122;5.250;2023-03-23T07:25:00;100158.0;;;12.53;100.0
62458;BME280;48509;52.122;5.250;2023-03-23T07:26:36;100158.0;;;12.53;100.0
62458;BME280;48509;52.122;5.250;2023-03-23T07:29:48;100158.0;;;12.6;100.0
62458;BME280;48509;52.122;5.250;2023-03-23T07:31:26;100163.0;;;12.63;100.0
62458;BME280;48509;52.122;5.250;2023-03-23T07:33:05;100162.0;;;12.69;100.0
62458;BME280;48509;52.122;5.250;2023-03-23T07:36:17;100166.0;;;12.68;100.0
62458;BME280;48509;52.122;5.250;2023-03-23T07:37:53;100161.0;;;12.76;100.0
62458;BME280;48509;52.122;5.250;2023-03-23T07:39:30;100169.0;;;12.66;100.0
62458;BME280;48509;52.122;5.250;2023-03-23T07:42:44;100172.0;;;12.62;100.0
62458;BME280;48509;52.122;5.250;2023-03-23T07:44:21;100175.0;;;12.74;100.0
62458;BME280;48509;52.122;5.250;2023-03-23T07:45:58;100181.0;;;12.74;100.0
62458;BME280;48509;52.122;5.250;2023-03-23T07:47:34;100186.0;;;12.81;100.0
62458;BME280;48509;52.122;5.250;2023-03-23T07:50:46;100182.0;;;12.85;100.0
62458;BME280;48509;52.122;5.250;2023-03-23T07:52:23;100181.0;;;12.82;100.0
62458;BME280;48509;52.122;5.250;2023-03-23T07:53:59;100183.0;;;12.88;100.0
62458;BME280;48509;52.122;5.250;2023-03-23T07:57:11;100178.0;;;12.89;100.0
62458;BME280;48509;52.122;5.250;2023-03-23T07:58:47;100161.0;;;13.03;100.0
62458;BME280;48509;52.122;5.250;2023-03-23T08:00:25;100159.0;;;13.04;100.0
62458;BME280;48509;52.122;5.250;2023-03-23T08:03:38;100164.0;;;13.01;100.0
62458;BME280;48509;52.122;5.250;2023-03-23T08:05:14;100176.0;;;13.05;100.0
62458;BME280;48509;52.122;5.250;2023-03-23T08:06:51;100180.0;;;13.02;100.0
62458;BME280;48509;52.122;5.250;2023-03-23T08:08:27;100191.0;;;13.11;100.0
62458;BME280;48509;52.122;5.250;2023-03-23T08:11:40;100192.0;;;12.97;100.0
62458;BME280;48509;52.122;5.250;2023-03-23T08:13:18;100192.0;;;12.95;100.0
62458;BME280;48509;52.122;5.250;2023-03-23T08:14:54;100188.0;;;12.97;100.0
62458;BME280;48509;52.122;5.250;2023-03-23T08:18:06;100195.0;;;13.1;100.0
62458;BME280;48509;52.122;5.250;2023-03-23T08:19:43;100192.0;;;13.17;100.0
62458;BME280;48509;52.122;5.250;2023-03-23T08:21:19;100196.0;;;13.11;100.0
62458;BME280;48509;52.122;5.250;2023-03-23T08:24:33;100193.0;;;13.15;100.0
62458;BME280;48509;52.122;5.250;2023-03-23T08:26:09;100201.0;;;13.24;100.0
62458;BME280;48509;52.122;5.250;2023-03-23T08:27:46;100189.0;;;13.36;100.0
62458;BME280;48509;52.122;5.250;2023-03-23T08:29:23;100196.0;;;13.36;100.0
62458;BME280;48509;52.122;5.250;2023-03-23T08:32:36;100202.0;;;13.4;100.0
62458;BME280;48509;52.122;5.250;2023-03-23T08:34:12;100200.0;;;13.35;100.0
62458;BME280;48509;52.122;5.250;2023-03-23T08:35:54;100205.0;;;13.43;100.0
62458;BME280;48509;52.122;5.250;2023-03-23T08:39:08;100205.0;;;13.37;100.0
62458;BME280;48509;52.122;5.250;2023-03-23T08:40:44;100215.0;;;13.36;100.0
62458;BME280;48509;52.122;5.250;2023-03-23T08:42:20;100210.0;;;13.39;100.0
62458;BME280;48509;52.122;5.250;2023-03-23T08:43:56;100209.0;;;13.33;100.0
62458;BME280;48509;52.122;5.250;2023-03-23T08:47:08;100208.0;;;13.28;100.0
62458;BME280;48509;52.122;5.250;2023-03-23T08:48:45;100213.0;;;13.37;100.0
62458;BME280;48509;52.122;5.250;2023-03-23T08:50:24;100211.0;;;13.45;100.0
62458;BME280;48509;52.122;5.250;2023-03-23T08:53:38;100218.0;;;13.55;100.0
62458;BME280;48509;52.122;5.250;2023-03-23T08:55:15;100219.0;;;13.49;100.0
62458;BME280;48509;52.122;5.250;2023-03-23T08:56:52;100225.0;;;13.44;100.0
62458;BME280;48509;52.122;5.250;2023-03-23T09:00:07;100228.0;;;13.51;100.0
62458;BME280;48509;52.122;5.250;2023-03-23T09:01:45;100226.0;;;13.56;100.0
62458;BME280;48509;52.122;5.250;2023-03-23T09:03:21;100230.0;;;13.71;100.0
62458;BME280;48509;52.122;5.250;2023-03-23T09:04:57;100232.0;;;13.73;100.0
62458;BME280;48509;52.122;5.250;2023-03-23T09:08:10;100230.0;;;13.74;100.0
62458;BME280;48509;52.122;5.250;2023-03-23T09:09:47;100228.0;;;13.88;100.0
62458;BME280;48509;52.122;5.250;2023-03-23T09:11:23;100220.0;;;13.88;100.0
62458;BME280;48509;52.122;5.250;2023-03-23T09:14:36;100230.0;;;13.85;100.0
62458;BME280;48509;52.122;5.250;2023-03-23T09:16:13;100236.0;;;13.87;100.0
62458;BME280;48509;52.122;5.250;2023-03-23T09:17:51;100237.0;;;13.78;100.0
62458;BME280;48509;52.122;5.250;2023-03-23T09:21:05;100232.0;;;13.81;97.46
62458;BME280;48509;52.122;5.250;2023-03-23T09:22:43;100234.0;;;13.67;97.1
62458;BME280;48509;52.122;5.250;2023-03-23T09:24:22;100225.0;;;13.63;96.99
62458;BME280;48509;52.122;5.250;2023-03-23T09:26:00;100241.0;;;13.51;97.09
62458;BME280;48509;52.122;5.250;2023-03-23T09:29:14;100222.0;;;13.47;97.72
62458;BME280;48509;52.122;5.250;2023-03-23T09:30:50;100225.0;;;13.39;98.13
62458;BME280;48509;52.122;5.250;2023-03-23T09:32:26;100228.0;;;13.57;98.92
62458;BME280;48509;52.122;5.250;2023-03-23T09:35:38;100234.0;;;13.64;98.32
62458;BME280;48509;52.122;5.250;2023-03-23T09:37:15;100237.0;;;13.74;98.09
62458;BME280;48509;52.122;5.250;2023-03-23T09:38:52;100250.0;;;13.92;99.38
62458;BME280;48509;52.122;5.250;2023-03-23T09:40:32;100250.0;;;13.97;95.0
62458;BME280;48509;52.122;5.250;2023-03-23T09:44:20;100255.0;;;14.09;94.94
62458;BME280;48509;52.122;5.250;2023-03-23T09:46:18;100253.0;;;14.19;92.34
62458;BME280;48509;52.122;5.250;2023-03-23T09:48:19;100245.0;;;14.21;89.24
62458;BME280;48509;52.122;5.250;2023-03-23T09:50:10;100253.0;;;14.2;91.74
62458;BME280;48509;52.122;5.250;2023-03-23T09:51:50;100250.0;;;14.32;90.09
62458;BME280;48509;52.122;5.250;2023-03-23T09:53:33;100251.0;;;14.25;89.05
62458;BME280;48509;52.122;5.250;2023-03-23T09:55:16;100262.0;;;14.22;87.31
62458;BME280;48509;52.122;5.250;2023-03-23T09:58:35;100264.0;;;14.18;89.76
62458;BME280;48509;52.122;5.250;2023-03-23T10:00:20;100268.0;;;14.26;90.98
62458;BME280;48509;52.122;5.250;2023-03-23T10:02:11;100263.0;;;14.39;89.8
62458;BME280;48509;52.122;5.250;2023-03-23T10:04:01;100280.0;;;14.34;90.98
62458;BME280;48509;52.122;5.250;2023-03-23T10:05:53;100280.0;;;14.4;90.14
62458;BME280;48509;52.122;5.250;2023-03-23T10:09:08;100281.0;;;14.56;89.97
62458;BME280;48509;52.122;5.250;2023-03-23T10:10:58;100285.0;;;14.61;87.6
62458;BME280;48509;52.122;5.250;2023-03-23T10:12:41;100292.0;;;14.58;88.32
62458;BME280;48509;52.122;5.250;2023-03-23T10:14:33;100290.0;;;14.59;86.12
62458;BME280;48509;52.122;5.250;2023-03-23T10:16:19;100290.0;;;14.62;86.54
62458;BME280;48509;52.122;5.250;2023-03-23T10:19:53;100286.0;;;14.49;85.62
62458;BME280;48509;52.122;5.250;2023-03-23T10:21:52;100295.0;;;14.22;84.63
62458;BME280;48509;52.122;5.250;2023-03-23T10:23:51;100288.0;;;14.36;84.6
62458;BME280;48509;52.122;5.250;2023-03-23T10:25:29;100297.0;;;14.6;86.6
62458;BME280;48509;52.122;5.250;2023-03-23T10:27:17;100291.0;;;14.65;84.84
62458;BME280;48509;52.122;5.250;2023-03-23T10:28:58;100295.0;;;14.81;83.53
62458;BME280;48509;52.122;5.250;2023-03-23T10:32:20;100303.0;;;14.98;86.89
62458;BME280;48509;52.122;5.250;2023-03-23T10:34:02;100305.0;;;14.89;81.31
62458;BME280;48509;52.122;5.250;2023-03-23T10:35:44;100307.0;;;15.05;83.32
62458;BME280;48509;52.122;5.250;2023-03-23T10:37:36;100297.0;;;14.98;81.5
62458;BME280;48509;52.122;5.250;2023-03-23T10:39:18;100305.0;;;15.02;82.12
62458;BME280;48509;52.122;5.250;2023-03-23T10:42:41;100287.0;;;14.91;81.11
62458;BME280;48509;52.122;5.250;2023-03-23T10:44:20;100300.0;;;14.84;79.83
62458;BME280;48509;52.122;5.250;2023-03-23T10:46:02;100308.0;;;15.06;81.61
62458;BME280;48509;52.122;5.250;2023-03-23T10:47:51;100305.0;;;15.09;80.3
62458;BME280;48509;52.122;5.250;2023-03-23T10:49:36;100299.0;;;15.17;75.52
62458;BME280;48509;52.122;5.250;2023-03-23T10:52:57;100292.0;;;15.19;79.13
62458;BME280;48509;52.122;5.250;2023-03-23T10:54:37;100297.0;;;15.45;79.41
62458;BME280;48509;52.122;5.250;2023-03-23T10:56:23;100288.0;;;15.55;76.09
62458;BME280;48509;52.122;5.250;2023-03-23T10:58:03;100296.0;;;15.7;77.33
62458;BME280;48509;52.122;5.250;2023-03-23T11:01:18;100298.0;;;15.69;75.89
62458;BME280;48509;52.122;5.250;2023-03-23T11:02:59;100302.0;;;15.63;76.03
62458;BME280;48509;52.122;5.250;2023-03-23T11:04:37;100305.0;;;15.5;76.47
62458;BME280;48509;52.122;5.250;2023-03-23T11:06:19;100307.0;;;15.42;76.61
62458;BME280;48509;52.122;5.250;2023-03-23T11:09:38;100309.0;;;15.51;78.02
62458;BME280;48509;52.122;5.250;2023-03-23T11:11:16;100307.0;;;15.42;77.41